sensor_id;sensor_type;location;lat;lon;timestamp;pressure;altitude;pressure_sealevel;temperature;humidity
48390;BME280;34643;47.964;7.982;2023-02-21T00:02:22;97258.59;;;15.75;57.81
48390;BME280;34643;47.964;7.982;2023-02-21T00:07:41;97260.41;;;15.73;57.91
48390;BME280;34643;47.964;7.982;2023-02-21T00:13:00;97266.44;;;15.74;57.91
48390;BME280;34643;47.964;7.982;2023-02-21T00:18:19;97256.97;;;15.73;57.81
48390;BME280;34643;47.964;7.982;2023-02-21T00:23:37;97257.91;;;15.72;57.84
48390;BME280;34643;47.964;7.982;2023-02-21T00:28:56;97251.94;;;15.70;57.95
48390;BME280;34643;47.964;7.982;2023-02-21T00:34:15;97247.56;;;15.70;57.79
48390;BME280;34643;47.964;7.982;2023-02-21T00:39:34;97239.88;;;15.69;57.73
48390;BME280;34643;47.964;7.982;2023-02-21T00:44:53;97233.81;;;15.68;57.76
48390;BME280;34643;47.964;7.982;2023-02-21T00:50:12;97222.59;;;15.68;57.96
48390;BME280;34643;47.964;7.982;2023-02-21T00:55:31;97226.97;;;15.67;57.82
48390;BME280;34643;47.964;7.982;2023-02-21T01:00:49;97221.84;;;15.66;57.86
48390;BME280;34643;47.964;7.982;2023-02-21T01:06:09;97221.94;;;15.64;57.77
48390;BME280;34643;47.964;7.982;2023-02-21T01:11:28;97219.41;;;15.63;57.85
48390;BME280;34643;47.964;7.982;2023-02-21T01:16:47;97218.50;;;15.64;57.77
48390;BME280;34643;47.964;7.982;2023-02-21T01:22:06;97224.63;;;15.63;57.60
48390;BME280;34643;47.964;7.982;2023-02-21T01:27:28;97213.38;;;15.62;57.81
48390;BME280;34643;47.964;7.982;2023-02-21T01:32:48;97216.09;;;15.61;57.77
48390;BME280;34643;47.964;7.982;2023-02-21T01:38:06;97211.72;;;15.61;57.77
48390;BME280;34643;47.964;7.982;2023-02-21T01:43:26;97203.16;;;15.59;57.76
48390;BME280;34643;47.964;7.982;2023-02-21T01:48:45;97190.25;;;15.57;57.89
48390;BME280;34643;47.964;7.982;2023-02-21T01:54:05;97193.78;;;15.56;57.81
48390;BME280;34643;47.964;7.982;2023-02-21T01:59:25;97192.94;;;15.56;57.96
48390;BME280;34643;47.964;7.982;2023-02-21T02:04:44;97178.25;;;15.55;57.86
48390;BME280;34643;47.964;7.982;2023-02-21T02:10:05;97176.56;;;15.54;57.95
48390;BME280;34643;47.964;7.982;2023-02-21T02:20:44;97163.56;;;15.54;57.99
48390;BME280;34643;47.964;7.982;2023-02-21T02:25:53;97158.47;;;15.52;57.64
48390;BME280;34643;47.964;7.982;2023-02-21T02:36:16;97149.91;;;15.50;57.80
48390;BME280;34643;47.964;7.982;2023-02-21T02:51:20;97148.34;;;15.48;57.85
48390;BME280;34643;47.964;7.982;2023-02-21T02:56:22;97143.16;;;15.48;57.71
48390;BME280;34643;47.964;7.982;2023-02-21T03:01:45;97144.88;;;15.47;57.84
48390;BME280;34643;47.964;7.982;2023-02-21T03:12:17;97138.13;;;15.45;57.87
48390;BME280;34643;47.964;7.982;2023-02-21T03:17:19;97134.69;;;15.44;57.84
48390;BME280;34643;47.964;7.982;2023-02-21T03:22:23;97125.19;;;15.43;57.80
48390;BME280;34643;47.964;7.982;2023-02-21T03:27:27;97124.38;;;15.43;57.94
48390;BME280;34643;47.964;7.982;2023-02-21T03:32:34;97128.75;;;15.42;57.93
48390;BME280;34643;47.964;7.982;2023-02-21T03:37:38;97134.03;;;15.40;57.80
48390;BME280;34643;47.964;7.982;2023-02-21T03:42:39;97127.16;;;15.39;57.88
48390;BME280;34643;47.964;7.982;2023-02-21T03:47:40;97133.31;;;15.38;57.84
48390;BME280;34643;47.964;7.982;2023-02-21T03:52:40;97135.91;;;15.38;57.88
48390;BME280;34643;47.964;7.982;2023-02-21T03:57:41;97130.78;;;15.37;57.88
48390;BME280;34643;47.964;7.982;2023-02-21T04:02:42;97131.63;;;15.37;57.75
48390;BME280;34643;47.964;7.982;2023-02-21T04:07:46;97129.94;;;15.36;57.87
48390;BME280;34643;47.964;7.982;2023-02-21T04:12:47;97125.78;;;15.34;57.97
48390;BME280;34643;47.964;7.982;2023-02-21T04:17:47;97129.19;;;15.34;57.70
48390;BME280;34643;47.964;7.982;2023-02-21T04:22:48;97124.94;;;15.33;57.75
48390;BME280;34643;47.964;7.982;2023-02-21T04:27:48;97123.25;;;15.32;57.83
48390;BME280;34643;47.964;7.982;2023-02-21T04:32:49;97122.44;;;15.32;57.65
48390;BME280;34643;47.964;7.982;2023-02-21T04:37:49;97113.03;;;15.29;57.95
48390;BME280;34643;47.964;7.982;2023-02-21T04:42:50;97125.13;;;15.30;57.84
48390;BME280;34643;47.964;7.982;2023-02-21T04:47:51;97123.44;;;15.29;57.68
48390;BME280;34643;47.964;7.982;2023-02-21T04:52:51;97124.38;;;15.28;57.90
48390;BME280;34643;47.964;7.982;2023-02-21T04:57:51;97133.84;;;15.29;57.67
48390;BME280;34643;47.964;7.982;2023-02-21T05:02:52;97134.97;;;15.25;57.95
48390;BME280;34643;47.964;7.982;2023-02-21T05:07:52;97129.00;;;15.23;57.80
48390;BME280;34643;47.964;7.982;2023-02-21T05:12:52;97129.00;;;15.23;57.87
48390;BME280;34643;47.964;7.982;2023-02-21T05:17:52;97118.69;;;15.21;57.98
48390;BME280;34643;47.964;7.982;2023-02-21T05:22:53;97116.09;;;15.21;57.89
48390;BME280;34643;47.964;7.982;2023-02-21T05:27:53;97116.19;;;15.20;57.71
48390;BME280;34643;47.964;7.982;2023-02-21T05:32:53;97114.53;;;15.19;57.76
48390;BME280;34643;47.964;7.982;2023-02-21T05:37:53;97132.75;;;15.19;57.88
48390;BME280;34643;47.964;7.982;2023-02-21T05:42:54;97131.06;;;15.18;57.89
48390;BME280;34643;47.964;7.982;2023-02-21T05:47:54;97123.34;;;15.16;57.75
48390;BME280;34643;47.964;7.982;2023-02-21T05:52:59;97115.63;;;15.15;57.88
48390;BME280;34643;47.964;7.982;2023-02-21T05:57:59;97114.81;;;15.14;57.88
48390;BME280;34643;47.964;7.982;2023-02-21T06:02:59;97113.13;;;15.13;57.61
48390;BME280;34643;47.964;7.982;2023-02-21T06:07:59;97106.25;;;15.12;57.63
48390;BME280;34643;47.964;7.982;2023-02-21T06:13:00;97102.91;;;15.10;57.80
48390;BME280;34643;47.964;7.982;2023-02-21T06:18:00;97103.75;;;15.11;57.94
48390;BME280;34643;47.964;7.982;2023-02-21T06:23:00;97107.25;;;15.10;57.85
48390;BME280;34643;47.964;7.982;2023-02-21T06:28:00;97103.94;;;15.08;57.85
48390;BME280;34643;47.964;7.982;2023-02-21T06:33:01;97097.91;;;15.07;57.84
48390;BME280;34643;47.964;7.982;2023-02-21T06:38:01;97110.97;;;15.06;57.71
48390;BME280;34643;47.964;7.982;2023-02-21T06:43:01;97110.97;;;15.06;57.90
48390;BME280;34643;47.964;7.982;2023-02-21T06:48:02;97103.28;;;15.04;57.83
48390;BME280;34643;47.964;7.982;2023-02-21T06:53:03;97115.44;;;15.04;57.51
48390;BME280;34643;47.964;7.982;2023-02-21T06:58:03;97121.56;;;15.02;57.70
48390;BME280;34643;47.964;7.982;2023-02-21T07:03:04;97114.69;;;15.01;57.81
48390;BME280;34643;47.964;7.982;2023-02-21T07:08:04;97124.25;;;15.01;57.62
48390;BME280;34643;47.964;7.982;2023-02-21T07:13:05;97127.63;;;15.03;57.70
48390;BME280;34643;47.964;7.982;2023-02-21T07:18:05;97135.28;;;15.05;57.76
48390;BME280;34643;47.964;7.982;2023-02-21T07:23:05;97135.28;;;15.05;57.69
48390;BME280;34643;47.964;7.982;2023-02-21T07:28:05;97134.22;;;15.09;57.49
48390;BME280;34643;47.964;7.982;2023-02-21T07:33:06;97134.94;;;15.11;57.74
48390;BME280;34643;47.964;7.982;2023-02-21T07:38:06;97132.19;;;15.14;57.61
48390;BME280;34643;47.964;7.982;2023-02-21T07:43:06;97131.97;;;15.17;57.46
48390;BME280;34643;47.964;7.982;2023-02-21T07:48:07;97138.03;;;15.17;57.64
48390;BME280;34643;47.964;7.982;2023-02-21T07:53:07;97130.88;;;15.21;57.66
48390;BME280;34643;47.964;7.982;2023-02-21T07:58:08;97144.63;;;15.23;57.59
48390;BME280;34643;47.964;7.982;2023-02-21T08:03:12;97141.94;;;15.25;57.66
48390;BME280;34643;47.964;7.982;2023-02-21T08:08:14;97128.84;;;15.26;57.48
48390;BME280;34643;47.964;7.982;2023-02-21T08:13:14;97131.44;;;15.26;57.55
48390;BME280;34643;47.964;7.982;2023-02-21T08:18:15;97127.81;;;15.29;57.76
48390;BME280;34643;47.964;7.982;2023-02-21T08:23:18;97131.16;;;15.31;57.75
48390;BME280;34643;47.964;7.982;2023-02-21T08:28:19;97124.16;;;15.31;57.65
48390;BME280;34643;47.964;7.982;2023-02-21T08:33:19;97130.06;;;15.35;57.54
48390;BME280;34643;47.964;7.982;2023-02-21T08:38:19;97123.16;;;15.34;57.60
48390;BME280;34643;47.964;7.982;2023-02-21T08:43:20;97122.91;;;15.38;57.68
48390;BME280;34643;47.964;7.982;2023-02-21T08:48:20;97112.38;;;15.40;57.68
48390;BME280;34643;47.964;7.982;2023-02-21T08:53:20;97114.88;;;15.42;57.80
48390;BME280;34643;47.964;7.982;2023-02-21T08:58:21;97109.69;;;15.42;57.81
48390;BME280;34643;47.964;7.982;2023-02-21T09:03:21;97102.63;;;15.44;57.86
48390;BME280;34643;47.964;7.982;2023-02-21T09:08:21;97105.03;;;15.47;57.77
48390;BME280;34643;47.964;7.982;2023-02-21T09:13:26;97093.81;;;15.46;57.79
48390;BME280;34643;47.964;7.982;2023-02-21T09:18:26;97097.97;;;15.49;57.90
48390;BME280;34643;47.964;7.982;2023-02-21T09:23:28;97090.06;;;15.50;57.95
48390;BME280;34643;47.964;7.982;2023-02-21T09:28:28;97089.06;;;15.53;57.93
48390;BME280;34643;47.964;7.982;2023-02-21T09:33:30;97081.25;;;15.53;57.86
48390;BME280;34643;47.964;7.982;2023-02-21T09:38:30;97081.13;;;15.54;57.96
48390;BME280;34643;47.964;7.982;2023-02-21T09:43:38;97078.44;;;15.56;57.91
48390;BME280;34643;47.964;7.982;2023-02-21T09:48:39;97074.00;;;15.58;57.95
48390;BME280;34643;47.964;7.982;2023-02-21T09:53:44;97066.22;;;15.58;58.07
48390;BME280;34643;47.964;7.982;2023-02-21T09:58:46;97063.47;;;15.59;58.06
48390;BME280;34643;47.964;7.982;2023-02-21T10:03:59;97060.78;;;15.61;58.17
48390;BME280;34643;47.964;7.982;2023-02-21T10:19:36;97051.88;;;15.65;58.28
48390;BME280;34643;47.964;7.982;2023-02-21T10:24:38;97053.53;;;15.66;58.19
48390;BME280;34643;47.964;7.982;2023-02-21T10:30:00;97050.94;;;15.66;58.34
48390;BME280;34643;47.964;7.982;2023-02-21T10:34:59;97049.16;;;15.67;58.31
48390;BME280;34643;47.964;7.982;2023-02-21T10:40:01;97037.91;;;15.66;58.30
48390;BME280;34643;47.964;7.982;2023-02-21T10:45:04;97038.00;;;15.65;58.29
48390;BME280;34643;47.964;7.982;2023-02-21T10:50:06;97039.59;;;15.67;58.37
48390;BME280;34643;47.964;7.982;2023-02-21T11:00:30;97019.78;;;15.65;58.53
48390;BME280;34643;47.964;7.982;2023-02-21T11:05:34;97015.44;;;15.65;58.35
48390;BME280;34643;47.964;7.982;2023-02-21T11:10:36;97013.75;;;15.64;58.36
48390;BME280;34643;47.964;7.982;2023-02-21T11:15:37;97001.66;;;15.63;58.32
48390;BME280;34643;47.964;7.982;2023-02-21T11:20:37;96992.94;;;15.64;58.46
48390;BME280;34643;47.964;7.982;2023-02-21T11:25:38;96986.06;;;15.63;58.46
48390;BME280;34643;47.964;7.982;2023-02-21T11:41:20;96952.25;;;15.63;58.38
48390;BME280;34643;47.964;7.982;2023-02-21T11:46:43;96950.59;;;15.62;58.37
48390;BME280;34643;47.964;7.982;2023-02-21T11:51:46;96936.84;;;15.60;58.40
48390;BME280;34643;47.964;7.982;2023-02-21T12:22:12;96888.53;;;15.56;58.46
48390;BME280;34643;47.964;7.982;2023-02-21T12:27:22;96876.47;;;15.55;58.60
48390;BME280;34643;47.964;7.982;2023-02-21T12:42:51;96855.56;;;15.56;58.39
48390;BME280;34643;47.964;7.982;2023-02-21T12:47:57;96839.19;;;15.54;58.58
48390;BME280;34643;47.964;7.982;2023-02-21T12:53:04;96833.16;;;15.54;58.56
48390;BME280;34643;47.964;7.982;2023-02-21T13:03:34;96819.44;;;15.52;58.35
48390;BME280;34643;47.964;7.982;2023-02-21T13:13:43;96801.22;;;15.52;58.50
48390;BME280;34643;47.964;7.982;2023-02-21T13:18:59;96797.78;;;15.51;58.50
48390;BME280;34643;47.964;7.982;2023-02-21T13:24:02;96785.59;;;15.52;58.50
48390;BME280;34643;47.964;7.982;2023-02-21T13:29:12;96776.97;;;15.51;58.51
48390;BME280;34643;47.964;7.982;2023-02-21T13:34:17;96775.41;;;15.49;58.44
48390;BME280;34643;47.964;7.982;2023-02-21T13:39:20;96759.78;;;15.49;58.44
48390;BME280;34643;47.964;7.982;2023-02-21T13:44:32;96756.25;;;15.50;58.42
48390;BME280;34643;47.964;7.982;2023-02-21T13:49:54;96755.44;;;15.49;58.57
48390;BME280;34643;47.964;7.982;2023-02-21T14:05:21;96729.53;;;15.48;58.19
48390;BME280;34643;47.964;7.982;2023-02-21T14:10:26;96729.63;;;15.46;58.42
48390;BME280;34643;47.964;7.982;2023-02-21T14:15:35;96723.47;;;15.47;58.42
48390;BME280;34643;47.964;7.982;2023-02-21T14:20:36;96720.03;;;15.47;58.41
48390;BME280;34643;47.964;7.982;2023-02-21T14:25:36;96712.25;;;15.47;58.47
48390;BME280;34643;47.964;7.982;2023-02-21T14:30:40;96704.53;;;15.45;58.57
48390;BME280;34643;47.964;7.982;2023-02-21T14:35:50;96703.63;;;15.46;58.57
48390;BME280;34643;47.964;7.982;2023-02-21T14:46:06;96699.44;;;15.44;58.55
48390;BME280;34643;47.964;7.982;2023-02-21T14:51:28;96700.19;;;15.46;58.64
48390;BME280;34643;47.964;7.982;2023-02-21T14:56:39;96694.13;;;15.45;58.40
48390;BME280;34643;47.964;7.982;2023-02-21T15:01:53;96693.31;;;15.45;58.59
48390;BME280;34643;47.964;7.982;2023-02-21T15:12:15;96687.19;;;15.46;58.41
48390;BME280;34643;47.964;7.982;2023-02-21T15:17:17;96683.84;;;15.44;58.59
48390;BME280;34643;47.964;7.982;2023-02-21T15:22:22;96684.69;;;15.44;58.49
48390;BME280;34643;47.964;7.982;2023-02-21T15:27:22;96685.50;;;15.45;58.50
48390;BME280;34643;47.964;7.982;2023-02-21T15:32:23;96682.91;;;15.45;58.42
48390;BME280;34643;47.964;7.982;2023-02-21T15:37:24;96678.63;;;15.44;58.42
48390;BME280;34643;47.964;7.982;2023-02-21T15:42:26;96681.38;;;15.42;58.49
48390;BME280;34643;47.964;7.982;2023-02-21T15:47:27;96680.31;;;15.45;58.41
48390;BME280;34643;47.964;7.982;2023-02-21T15:52:33;96673.44;;;15.44;58.54
48390;BME280;34643;47.964;7.982;2023-02-21T15:57:34;96675.22;;;15.43;58.59
48390;BME280;34643;47.964;7.982;2023-02-21T16:02:34;96673.44;;;15.44;58.51
48390;BME280;34643;47.964;7.982;2023-02-21T16:07:35;96661.38;;;15.43;58.61
48390;BME280;34643;47.964;7.982;2023-02-21T16:12:43;96662.19;;;15.43;58.49
48390;BME280;34643;47.964;7.982;2023-02-21T16:17:44;96662.19;;;15.43;58.62
48390;BME280;34643;47.964;7.982;2023-02-21T16:22:46;96655.34;;;15.42;58.55
48390;BME280;34643;47.964;7.982;2023-02-21T16:27:49;96646.78;;;15.40;58.54
48390;BME280;34643;47.964;7.982;2023-02-21T16:32:49;96650.34;;;15.39;58.52
48390;BME280;34643;47.964;7.982;2023-02-21T16:37:51;96648.56;;;15.39;58.54
48390;BME280;34643;47.964;7.982;2023-02-21T16:42:53;96654.72;;;15.38;58.56
48390;BME280;34643;47.964;7.982;2023-02-21T16:47:54;96652.13;;;15.38;58.54
48390;BME280;34643;47.964;7.982;2023-02-21T16:52:55;96656.47;;;15.38;58.59
48390;BME280;34643;47.964;7.982;2023-02-21T16:57:56;96657.44;;;15.37;58.55
48390;BME280;34643;47.964;7.982;2023-02-21T17:02:58;96663.56;;;15.36;58.55
48390;BME280;34643;47.964;7.982;2023-02-21T17:07:58;96672.19;;;15.36;58.67
48390;BME280;34643;47.964;7.982;2023-02-21T17:12:58;96677.38;;;15.36;58.54
48390;BME280;34643;47.964;7.982;2023-02-21T17:18:00;96674.91;;;15.35;58.86
48390;BME280;34643;47.964;7.982;2023-02-21T17:23:00;96682.59;;;15.36;58.67
48390;BME280;34643;47.964;7.982;2023-02-21T17:28:01;96689.66;;;15.34;58.68
48390;BME280;34643;47.964;7.982;2023-02-21T17:33:02;96691.34;;;15.35;58.64
48390;BME280;34643;47.964;7.982;2023-02-21T17:38:02;96694.88;;;15.34;58.51
48390;BME280;34643;47.964;7.982;2023-02-21T17:43:03;96690.53;;;15.35;58.48
48390;BME280;34643;47.964;7.982;2023-02-21T17:48:07;96691.44;;;15.34;58.49
48390;BME280;34643;47.964;7.982;2023-02-21T17:53:07;96693.13;;;15.35;58.59
48390;BME280;34643;47.964;7.982;2023-02-21T17:58:08;96682.81;;;15.33;58.48
48390;BME280;34643;47.964;7.982;2023-02-21T18:03:08;96684.56;;;15.33;58.61
48390;BME280;34643;47.964;7.982;2023-02-21T18:08:09;96682.81;;;15.33;58.37
48390;BME280;34643;47.964;7.982;2023-02-21T18:13:09;96675.94;;;15.32;58.49
48390;BME280;34643;47.964;7.982;2023-02-21T18:18:10;96667.22;;;15.33;58.51
48390;BME280;34643;47.964;7.982;2023-02-21T18:23:11;96670.72;;;15.32;58.41
48390;BME280;34643;47.964;7.982;2023-02-21T18:28:11;96664.72;;;15.32;58.49
48390;BME280;34643;47.964;7.982;2023-02-21T18:33:12;96659.50;;;15.32;58.42
48390;BME280;34643;47.964;7.982;2023-02-21T18:38:12;96661.25;;;15.31;58.46
48390;BME280;34643;47.964;7.982;2023-02-21T18:43:19;96648.25;;;15.31;58.53
48390;BME280;34643;47.964;7.982;2023-02-21T18:48:20;96643.06;;;15.31;58.53
48390;BME280;34643;47.964;7.982;2023-02-21T18:53:21;96640.59;;;15.30;58.40
48390;BME280;34643;47.964;7.982;2023-02-21T18:58:21;96637.03;;;15.31;58.52
48390;BME280;34643;47.964;7.982;2023-02-21T19:03:22;96635.38;;;15.30;58.51
48390;BME280;34643;47.964;7.982;2023-02-21T19:08:22;96636.19;;;15.30;58.59
48390;BME280;34643;47.964;7.982;2023-02-21T19:13:22;96631.00;;;15.30;58.38
48390;BME280;34643;47.964;7.982;2023-02-21T19:18:22;96627.59;;;15.30;58.54
48390;BME280;34643;47.964;7.982;2023-02-21T19:23:23;96629.31;;;15.29;58.54
48390;BME280;34643;47.964;7.982;2023-02-21T19:28:23;96627.59;;;15.30;58.39
48390;BME280;34643;47.964;7.982;2023-02-21T19:33:27;96628.50;;;15.29;58.39
48390;BME280;34643;47.964;7.982;2023-02-21T19:38:27;96633.69;;;15.29;58.46
48390;BME280;34643;47.964;7.982;2023-02-21T19:43:28;96637.22;;;15.28;58.30
48390;BME280;34643;47.964;7.982;2023-02-21T19:48:28;96641.59;;;15.27;58.49
48390;BME280;34643;47.964;7.982;2023-02-21T19:53:28;96639.97;;;15.26;58.34
48390;BME280;34643;47.964;7.982;2023-02-21T19:58:29;96639.09;;;15.26;58.42
48390;BME280;34643;47.964;7.982;2023-02-21T20:03:29;96639.09;;;15.26;58.33
48390;BME280;34643;47.964;7.982;2023-02-21T20:08:29;96644.41;;;15.24;58.29
48390;BME280;34643;47.964;7.982;2023-02-21T20:13:30;96647.00;;;15.24;58.29
48390;BME280;34643;47.964;7.982;2023-02-21T20:18:30;96646.19;;;15.24;58.36
48390;BME280;34643;47.964;7.982;2023-02-21T20:23:30;96657.41;;;15.24;58.40
48390;BME280;34643;47.964;7.982;2023-02-21T20:28:30;96655.75;;;15.23;58.29
48390;BME280;34643;47.964;7.982;2023-02-21T20:33:31;96662.75;;;15.23;58.26
48390;BME280;34643;47.964;7.982;2023-02-21T20:38:31;96660.13;;;15.23;58.36
48390;BME280;34643;47.964;7.982;2023-02-21T20:43:31;96667.94;;;15.23;58.37
48390;BME280;34643;47.964;7.982;2023-02-21T20:48:33;96673.25;;;15.21;58.40
48390;BME280;34643;47.964;7.982;2023-02-21T20:53:34;96674.06;;;15.21;58.35
48390;BME280;34643;47.964;7.982;2023-02-21T20:58:35;96673.25;;;15.21;58.26
48390;BME280;34643;47.964;7.982;2023-02-21T21:03:36;96668.97;;;15.20;58.39
48390;BME280;34643;47.964;7.982;2023-02-21T21:08:36;96681.97;;;15.20;58.18
48390;BME280;34643;47.964;7.982;2023-02-21T21:13:36;96673.34;;;15.19;58.23
48390;BME280;34643;47.964;7.982;2023-02-21T21:18:37;96675.13;;;15.19;58.30
48390;BME280;34643;47.964;7.982;2023-02-21T21:23:37;96674.25;;;15.18;58.20
48390;BME280;34643;47.964;7.982;2023-02-21T21:28:38;96674.25;;;15.18;58.36
48390;BME280;34643;47.964;7.982;2023-02-21T21:33:39;96678.63;;;15.18;58.25
48390;BME280;34643;47.964;7.982;2023-02-21T21:38:40;96673.44;;;15.18;58.20
48390;BME280;34643;47.964;7.982;2023-02-21T21:43:41;96662.31;;;15.16;58.19
48390;BME280;34643;47.964;7.982;2023-02-21T21:48:43;96657.94;;;15.16;58.20
48390;BME280;34643;47.964;7.982;2023-02-21T21:53:43;96653.69;;;15.15;58.23
48390;BME280;34643;47.964;7.982;2023-02-21T21:58:45;96654.50;;;15.16;58.34
48390;BME280;34643;47.964;7.982;2023-02-21T22:03:45;96658.03;;;15.15;58.31
48390;BME280;34643;47.964;7.982;2023-02-21T22:08:45;96652.84;;;15.15;58.18
48390;BME280;34643;47.964;7.982;2023-02-21T22:13:45;96652.84;;;15.15;58.11
48390;BME280;34643;47.964;7.982;2023-02-21T22:18:46;96650.34;;;15.13;58.23
48390;BME280;34643;47.964;7.982;2023-02-21T22:23:46;96652.09;;;15.13;58.17
48390;BME280;34643;47.964;7.982;2023-02-21T22:28:47;96642.66;;;15.12;58.29
48390;BME280;34643;47.964;7.982;2023-02-21T22:33:48;96642.66;;;15.12;58.29
48390;BME280;34643;47.964;7.982;2023-02-21T22:38:48;96643.50;;;15.12;58.17
48390;BME280;34643;47.964;7.982;2023-02-21T22:43:49;96633.19;;;15.11;58.34
48390;BME280;34643;47.964;7.982;2023-02-21T22:48:49;96634.09;;;15.10;58.15
48390;BME280;34643;47.964;7.982;2023-02-21T22:53:49;96628.09;;;15.09;58.17
48390;BME280;34643;47.964;7.982;2023-02-21T22:58:50;96626.31;;;15.10;58.03
48390;BME280;34643;47.964;7.982;2023-02-21T23:03:51;96627.25;;;15.09;58.15
48390;BME280;34643;47.964;7.982;2023-02-21T23:08:52;96622.06;;;15.09;58.08
48390;BME280;34643;47.964;7.982;2023-02-21T23:13:52;96622.88;;;15.09;58.32
48390;BME280;34643;47.964;7.982;2023-02-21T23:18:52;96623.00;;;15.08;58.27
48390;BME280;34643;47.964;7.982;2023-02-21T23:23:52;96622.06;;;15.09;58.16
48390;BME280;34643;47.964;7.982;2023-02-21T23:28:53;96619.56;;;15.07;58.18
48390;BME280;34643;47.964;7.982;2023-02-21T23:33:53;96618.75;;;15.07;58.27
48390;BME280;34643;47.964;7.982;2023-02-21T23:38:53;96613.53;;;15.07;58.05
48390;BME280;34643;47.964;7.982;2023-02-21T23:43:55;96614.47;;;15.06;58.29
48390;BME280;34643;47.964;7.982;2023-02-21T23:48:57;96613.66;;;15.05;58.23
48390;BME280;34643;47.964;7.982;2023-02-21T23:53:57;96616.25;;;15.05;58.20
48390;BME280;34643;47.964;7.982;2023-02-21T23:58:57;96613.75;;;15.04;58.06
